sensor_id;sensor_type;location;lat;lon;timestamp;temperature;humidity
24338;DHT22;12457;50.832;4.346;2023-01-08T00:02:15;10.50;99.90
24338;DHT22;12457;50.832;4.346;2023-01-08T00:04:41;10.60;99.90
24338;DHT22;12457;50.832;4.346;2023-01-08T00:07:08;10.60;99.90
24338;DHT22;12457;50.832;4.346;2023-01-08T00:09:33;10.70;99.90
24338;DHT22;12457;50.832;4.346;2023-01-08T00:11:59;10.60;99.90
24338;DHT22;12457;50.832;4.346;2023-01-08T00:14:25;10.70;99.90
24338;DHT22;12457;50.832;4.346;2023-01-08T00:16:50;10.60;99.90
24338;DHT22;12457;50.832;4.346;2023-01-08T00:19:16;10.50;99.90
24338;DHT22;12457;50.832;4.346;2023-01-08T00:21:42;10.00;99.90
24338;DHT22;12457;50.832;4.346;2023-01-08T00:24:08;9.70;99.90
24338;DHT22;12457;50.832;4.346;2023-01-08T00:26:33;9.50;99.90
24338;DHT22;12457;50.832;4.346;2023-01-08T00:28:59;9.30;99.90
24338;DHT22;12457;50.832;4.346;2023-01-08T00:31:25;9.20;99.90
24338;DHT22;12457;50.832;4.346;2023-01-08T00:33:50;9.10;99.90
24338;DHT22;12457;50.832;4.346;2023-01-08T00:36:17;9.10;99.90
24338;DHT22;12457;50.832;4.346;2023-01-08T00:38:44;9.00;99.90
24338;DHT22;12457;50.832;4.346;2023-01-08T00:41:12;8.90;99.90
24338;DHT22;12457;50.832;4.346;2023-01-08T00:43:38;8.90;99.90
24338;DHT22;12457;50.832;4.346;2023-01-08T00:46:05;8.80;99.90
24338;DHT22;12457;50.832;4.346;2023-01-08T00:48:31;8.80;99.90
24338;DHT22;12457;50.832;4.346;2023-01-08T00:51:00;8.70;99.90
24338;DHT22;12457;50.832;4.346;2023-01-08T00:53:27;8.70;99.90
24338;DHT22;12457;50.832;4.346;2023-01-08T00:56:04;8.80;99.90
24338;DHT22;12457;50.832;4.346;2023-01-08T00:58:30;8.70;99.90
24338;DHT22;12457;50.832;4.346;2023-01-08T01:00:56;8.70;99.90
24338;DHT22;12457;50.832;4.346;2023-01-08T01:03:22;8.70;99.90
24338;DHT22;12457;50.832;4.346;2023-01-08T01:05:48;8.70;99.90
24338;DHT22;12457;50.832;4.346;2023-01-08T01:08:14;8.70;99.90
24338;DHT22;12457;50.832;4.346;2023-01-08T01:10:40;8.70;99.90
24338;DHT22;12457;50.832;4.346;2023-01-08T01:13:06;8.80;99.90
24338;DHT22;12457;50.832;4.346;2023-01-08T01:15:33;8.80;99.90
24338;DHT22;12457;50.832;4.346;2023-01-08T01:17:59;8.70;99.90
24338;DHT22;12457;50.832;4.346;2023-01-08T01:20:25;8.80;99.90
24338;DHT22;12457;50.832;4.346;2023-01-08T01:22:51;8.80;99.90
24338;DHT22;12457;50.832;4.346;2023-01-08T01:25:16;8.80;99.90
24338;DHT22;12457;50.832;4.346;2023-01-08T01:27:42;8.70;99.90
24338;DHT22;12457;50.832;4.346;2023-01-08T01:30:08;8.80;99.90
24338;DHT22;12457;50.832;4.346;2023-01-08T01:32:34;8.80;99.90
24338;DHT22;12457;50.832;4.346;2023-01-08T01:35:00;8.80;99.90
24338;DHT22;12457;50.832;4.346;2023-01-08T01:37:26;8.80;99.90
24338;DHT22;12457;50.832;4.346;2023-01-08T01:39:52;8.80;99.90
24338;DHT22;12457;50.832;4.346;2023-01-08T01:42:18;8.80;99.90
24338;DHT22;12457;50.832;4.346;2023-01-08T01:45:14;8.80;99.90
24338;DHT22;12457;50.832;4.346;2023-01-08T01:47:41;8.80;99.90
24338;DHT22;12457;50.832;4.346;2023-01-08T01:50:19;8.80;99.90
24338;DHT22;12457;50.832;4.346;2023-01-08T01:53:00;8.90;99.90
24338;DHT22;12457;50.832;4.346;2023-01-08T01:55:28;9.00;99.90
24338;DHT22;12457;50.832;4.346;2023-01-08T01:58:11;9.00;99.90
24338;DHT22;12457;50.832;4.346;2023-01-08T02:00:37;8.90;99.90
24338;DHT22;12457;50.832;4.346;2023-01-08T02:03:03;9.00;99.90
24338;DHT22;12457;50.832;4.346;2023-01-08T02:08:12;9.00;99.90
24338;DHT22;12457;50.832;4.346;2023-01-08T02:10:49;9.00;99.90
24338;DHT22;12457;50.832;4.346;2023-01-08T02:13:26;9.00;99.90
24338;DHT22;12457;50.832;4.346;2023-01-08T02:16:00;9.00;99.90
24338;DHT22;12457;50.832;4.346;2023-01-08T02:18:46;9.00;99.90
24338;DHT22;12457;50.832;4.346;2023-01-08T02:21:45;9.00;99.90
24338;DHT22;12457;50.832;4.346;2023-01-08T02:24:42;9.10;99.90
24338;DHT22;12457;50.832;4.346;2023-01-08T02:27:09;9.20;99.90
24338;DHT22;12457;50.832;4.346;2023-01-08T02:29:35;9.20;99.90
24338;DHT22;12457;50.832;4.346;2023-01-08T02:32:01;9.30;99.90
24338;DHT22;12457;50.832;4.346;2023-01-08T02:34:27;9.30;99.90
24338;DHT22;12457;50.832;4.346;2023-01-08T02:36:56;9.40;99.90
24338;DHT22;12457;50.832;4.346;2023-01-08T02:45:09;9.30;99.90
24338;DHT22;12457;50.832;4.346;2023-01-08T02:48:12;9.30;99.90
24338;DHT22;12457;50.832;4.346;2023-01-08T02:50:50;9.10;99.90
24338;DHT22;12457;50.832;4.346;2023-01-08T02:53:28;9.10;99.90
24338;DHT22;12457;50.832;4.346;2023-01-08T02:56:02;9.00;99.90
24338;DHT22;12457;50.832;4.346;2023-01-08T02:58:31;9.00;99.90
24338;DHT22;12457;50.832;4.346;2023-01-08T03:00:59;9.10;99.90
24338;DHT22;12457;50.832;4.346;2023-01-08T03:03:27;9.10;99.90
24338;DHT22;12457;50.832;4.346;2023-01-08T03:06:14;9.10;99.90
24338;DHT22;12457;50.832;4.346;2023-01-08T03:08:44;9.10;99.90
24338;DHT22;12457;50.832;4.346;2023-01-08T03:11:13;9.00;99.90
24338;DHT22;12457;50.832;4.346;2023-01-08T03:14:02;9.00;99.90
24338;DHT22;12457;50.832;4.346;2023-01-08T03:16:37;9.00;99.90
24338;DHT22;12457;50.832;4.346;2023-01-08T03:19:22;9.00;99.90
24338;DHT22;12457;50.832;4.346;2023-01-08T03:21:51;9.00;99.90
24338;DHT22;12457;50.832;4.346;2023-01-08T03:24:28;9.00;99.90
24338;DHT22;12457;50.832;4.346;2023-01-08T03:26:58;8.90;99.90
24338;DHT22;12457;50.832;4.346;2023-01-08T03:29:25;8.80;99.90
24338;DHT22;12457;50.832;4.346;2023-01-08T03:31:56;8.80;99.90
24338;DHT22;12457;50.832;4.346;2023-01-08T03:34:24;8.80;99.90
24338;DHT22;12457;50.832;4.346;2023-01-08T03:36:54;8.70;99.90
24338;DHT22;12457;50.832;4.346;2023-01-08T03:39:51;8.70;99.90
24338;DHT22;12457;50.832;4.346;2023-01-08T03:42:19;8.60;99.90
24338;DHT22;12457;50.832;4.346;2023-01-08T03:44:46;8.60;99.90
24338;DHT22;12457;50.832;4.346;2023-01-08T03:47:12;8.60;99.90
24338;DHT22;12457;50.832;4.346;2023-01-08T03:49:40;8.60;99.90
24338;DHT22;12457;50.832;4.346;2023-01-08T03:52:07;8.60;99.90
24338;DHT22;12457;50.832;4.346;2023-01-08T03:54:35;8.50;99.90
24338;DHT22;12457;50.832;4.346;2023-01-08T03:57:01;8.50;99.90
24338;DHT22;12457;50.832;4.346;2023-01-08T03:59:27;8.50;99.90
24338;DHT22;12457;50.832;4.346;2023-01-08T04:01:53;8.50;99.90
24338;DHT22;12457;50.832;4.346;2023-01-08T04:04:18;8.50;99.90
24338;DHT22;12457;50.832;4.346;2023-01-08T04:06:44;8.50;99.90
24338;DHT22;12457;50.832;4.346;2023-01-08T04:09:10;8.40;99.90
24338;DHT22;12457;50.832;4.346;2023-01-08T04:11:35;8.40;99.90
24338;DHT22;12457;50.832;4.346;2023-01-08T04:14:01;8.40;99.90
24338;DHT22;12457;50.832;4.346;2023-01-08T04:16:27;8.40;99.90
24338;DHT22;12457;50.832;4.346;2023-01-08T04:18:53;8.30;99.90
24338;DHT22;12457;50.832;4.346;2023-01-08T04:21:18;8.30;99.90
24338;DHT22;12457;50.832;4.346;2023-01-08T04:23:44;8.30;99.90
24338;DHT22;12457;50.832;4.346;2023-01-08T04:26:10;8.30;99.90
24338;DHT22;12457;50.832;4.346;2023-01-08T04:28:36;8.20;99.90
24338;DHT22;12457;50.832;4.346;2023-01-08T04:31:06;8.20;99.90
24338;DHT22;12457;50.832;4.346;2023-01-08T04:33:31;8.10;99.90
24338;DHT22;12457;50.832;4.346;2023-01-08T04:35:57;8.00;99.90
24338;DHT22;12457;50.832;4.346;2023-01-08T04:38:23;8.00;99.90
24338;DHT22;12457;50.832;4.346;2023-01-08T04:40:48;7.90;99.90
24338;DHT22;12457;50.832;4.346;2023-01-08T04:43:14;7.80;99.90
24338;DHT22;12457;50.832;4.346;2023-01-08T04:45:40;7.80;99.90
24338;DHT22;12457;50.832;4.346;2023-01-08T04:48:06;7.80;99.90
24338;DHT22;12457;50.832;4.346;2023-01-08T04:50:31;7.70;99.90
24338;DHT22;12457;50.832;4.346;2023-01-08T04:52:58;7.70;99.90
24338;DHT22;12457;50.832;4.346;2023-01-08T04:55:24;7.60;99.90
24338;DHT22;12457;50.832;4.346;2023-01-08T04:57:50;7.50;99.90
24338;DHT22;12457;50.832;4.346;2023-01-08T05:00:16;7.50;99.90
24338;DHT22;12457;50.832;4.346;2023-01-08T05:02:41;7.50;99.90
24338;DHT22;12457;50.832;4.346;2023-01-08T05:05:07;7.50;99.90
24338;DHT22;12457;50.832;4.346;2023-01-08T05:07:33;7.50;99.90
24338;DHT22;12457;50.832;4.346;2023-01-08T05:09:59;7.40;99.90
24338;DHT22;12457;50.832;4.346;2023-01-08T05:12:24;7.40;99.90
24338;DHT22;12457;50.832;4.346;2023-01-08T05:14:50;7.40;99.90
24338;DHT22;12457;50.832;4.346;2023-01-08T05:17:16;7.40;99.90
24338;DHT22;12457;50.832;4.346;2023-01-08T05:19:42;7.30;99.90
24338;DHT22;12457;50.832;4.346;2023-01-08T05:22:07;7.30;99.90
24338;DHT22;12457;50.832;4.346;2023-01-08T05:24:33;7.30;99.90
24338;DHT22;12457;50.832;4.346;2023-01-08T05:26:59;7.30;99.90
24338;DHT22;12457;50.832;4.346;2023-01-08T05:29:24;7.30;99.90
24338;DHT22;12457;50.832;4.346;2023-01-08T05:31:50;7.20;99.90
24338;DHT22;12457;50.832;4.346;2023-01-08T05:34:16;7.20;99.90
24338;DHT22;12457;50.832;4.346;2023-01-08T05:36:41;7.20;99.90
24338;DHT22;12457;50.832;4.346;2023-01-08T05:39:07;7.10;99.90
24338;DHT22;12457;50.832;4.346;2023-01-08T05:41:33;7.10;99.90
24338;DHT22;12457;50.832;4.346;2023-01-08T05:43:59;7.00;99.90
24338;DHT22;12457;50.832;4.346;2023-01-08T05:46:25;7.10;99.90
24338;DHT22;12457;50.832;4.346;2023-01-08T05:48:51;7.10;99.90
24338;DHT22;12457;50.832;4.346;2023-01-08T05:51:16;7.10;99.90
24338;DHT22;12457;50.832;4.346;2023-01-08T05:53:42;7.10;99.90
24338;DHT22;12457;50.832;4.346;2023-01-08T05:56:09;7.10;99.90
24338;DHT22;12457;50.832;4.346;2023-01-08T05:58:36;7.10;99.90
24338;DHT22;12457;50.832;4.346;2023-01-08T06:01:12;7.00;99.90
24338;DHT22;12457;50.832;4.346;2023-01-08T06:03:40;7.10;99.90
24338;DHT22;12457;50.832;4.346;2023-01-08T06:06:06;7.10;99.90
24338;DHT22;12457;50.832;4.346;2023-01-08T06:08:33;7.10;99.90
24338;DHT22;12457;50.832;4.346;2023-01-08T06:11:03;7.10;99.90
24338;DHT22;12457;50.832;4.346;2023-01-08T06:13:30;7.10;99.90
24338;DHT22;12457;50.832;4.346;2023-01-08T06:15:58;7.10;99.90
24338;DHT22;12457;50.832;4.346;2023-01-08T06:18:25;7.10;99.90
24338;DHT22;12457;50.832;4.346;2023-01-08T06:20:51;7.00;99.90
24338;DHT22;12457;50.832;4.346;2023-01-08T06:23:16;7.10;99.90
24338;DHT22;12457;50.832;4.346;2023-01-08T06:25:42;7.10;99.90
24338;DHT22;12457;50.832;4.346;2023-01-08T06:28:08;7.10;99.90
24338;DHT22;12457;50.832;4.346;2023-01-08T06:30:33;7.10;99.90
24338;DHT22;12457;50.832;4.346;2023-01-08T06:33:00;7.10;99.90
24338;DHT22;12457;50.832;4.346;2023-01-08T06:35:26;7.10;99.90
24338;DHT22;12457;50.832;4.346;2023-01-08T06:37:56;7.10;99.90
24338;DHT22;12457;50.832;4.346;2023-01-08T06:40:23;7.10;99.90
24338;DHT22;12457;50.832;4.346;2023-01-08T06:42:49;7.10;99.90
24338;DHT22;12457;50.832;4.346;2023-01-08T06:45:15;7.20;99.90
24338;DHT22;12457;50.832;4.346;2023-01-08T06:47:41;7.20;99.90
24338;DHT22;12457;50.832;4.346;2023-01-08T06:50:06;7.30;99.90
24338;DHT22;12457;50.832;4.346;2023-01-08T06:52:32;7.30;99.90
24338;DHT22;12457;50.832;4.346;2023-01-08T06:54:58;7.40;99.90
24338;DHT22;12457;50.832;4.346;2023-01-08T06:57:24;7.50;99.90
24338;DHT22;12457;50.832;4.346;2023-01-08T06:59:49;7.60;99.90
24338;DHT22;12457;50.832;4.346;2023-01-08T07:02:16;7.60;99.90
24338;DHT22;12457;50.832;4.346;2023-01-08T07:04:42;7.50;99.90
24338;DHT22;12457;50.832;4.346;2023-01-08T07:07:12;7.50;99.90
24338;DHT22;12457;50.832;4.346;2023-01-08T07:09:38;7.50;99.90
24338;DHT22;12457;50.832;4.346;2023-01-08T07:12:04;7.60;99.90
24338;DHT22;12457;50.832;4.346;2023-01-08T07:14:30;7.70;99.90
24338;DHT22;12457;50.832;4.346;2023-01-08T07:16:56;7.70;99.90
24338;DHT22;12457;50.832;4.346;2023-01-08T07:19:21;7.70;99.90
24338;DHT22;12457;50.832;4.346;2023-01-08T07:21:47;7.70;99.90
24338;DHT22;12457;50.832;4.346;2023-01-08T07:24:13;7.80;99.90
24338;DHT22;12457;50.832;4.346;2023-01-08T07:26:38;7.80;99.90
24338;DHT22;12457;50.832;4.346;2023-01-08T07:29:04;7.80;99.90
24338;DHT22;12457;50.832;4.346;2023-01-08T07:31:31;7.80;99.90
24338;DHT22;12457;50.832;4.346;2023-01-08T07:33:57;7.80;99.90
24338;DHT22;12457;50.832;4.346;2023-01-08T07:36:23;7.90;99.90
24338;DHT22;12457;50.832;4.346;2023-01-08T07:38:49;7.90;99.90
24338;DHT22;12457;50.832;4.346;2023-01-08T07:41:15;7.90;99.90
24338;DHT22;12457;50.832;4.346;2023-01-08T07:43:41;8.00;99.90
24338;DHT22;12457;50.832;4.346;2023-01-08T07:46:07;8.00;99.90
24338;DHT22;12457;50.832;4.346;2023-01-08T07:48:33;8.00;99.90
24338;DHT22;12457;50.832;4.346;2023-01-08T07:51:04;8.00;99.90
24338;DHT22;12457;50.832;4.346;2023-01-08T07:53:29;7.90;99.90
24338;DHT22;12457;50.832;4.346;2023-01-08T07:56:00;7.90;99.90
24338;DHT22;12457;50.832;4.346;2023-01-08T07:58:26;7.90;99.90
24338;DHT22;12457;50.832;4.346;2023-01-08T08:00:52;7.90;99.90
24338;DHT22;12457;50.832;4.346;2023-01-08T08:03:18;8.00;99.90
24338;DHT22;12457;50.832;4.346;2023-01-08T08:05:43;8.00;99.90
24338;DHT22;12457;50.832;4.346;2023-01-08T08:08:10;8.00;99.90
24338;DHT22;12457;50.832;4.346;2023-01-08T08:10:37;8.10;99.90
24338;DHT22;12457;50.832;4.346;2023-01-08T08:13:03;8.20;99.90
24338;DHT22;12457;50.832;4.346;2023-01-08T08:15:29;8.30;99.90
24338;DHT22;12457;50.832;4.346;2023-01-08T08:17:55;8.30;99.90
24338;DHT22;12457;50.832;4.346;2023-01-08T08:20:20;8.30;99.90
24338;DHT22;12457;50.832;4.346;2023-01-08T08:22:47;8.30;99.90
24338;DHT22;12457;50.832;4.346;2023-01-08T08:25:13;8.30;99.90
24338;DHT22;12457;50.832;4.346;2023-01-08T08:27:40;8.30;99.90
24338;DHT22;12457;50.832;4.346;2023-01-08T08:30:07;8.30;99.90
24338;DHT22;12457;50.832;4.346;2023-01-08T08:32:33;8.30;99.90
24338;DHT22;12457;50.832;4.346;2023-01-08T08:34:59;8.30;99.90
24338;DHT22;12457;50.832;4.346;2023-01-08T08:37:25;8.30;99.90
24338;DHT22;12457;50.832;4.346;2023-01-08T08:39:51;8.30;99.90
24338;DHT22;12457;50.832;4.346;2023-01-08T08:42:17;8.40;99.90
24338;DHT22;12457;50.832;4.346;2023-01-08T08:44:42;8.30;99.90
24338;DHT22;12457;50.832;4.346;2023-01-08T08:47:08;8.30;99.90
24338;DHT22;12457;50.832;4.346;2023-01-08T08:49:34;8.30;99.90
24338;DHT22;12457;50.832;4.346;2023-01-08T08:52:01;8.30;99.90
24338;DHT22;12457;50.832;4.346;2023-01-08T08:54:27;8.30;99.90
24338;DHT22;12457;50.832;4.346;2023-01-08T08:56:53;8.30;99.90
24338;DHT22;12457;50.832;4.346;2023-01-08T08:59:19;8.20;99.90
24338;DHT22;12457;50.832;4.346;2023-01-08T09:01:44;8.20;99.90
24338;DHT22;12457;50.832;4.346;2023-01-08T09:04:10;8.20;99.90
24338;DHT22;12457;50.832;4.346;2023-01-08T09:06:36;8.20;99.90
24338;DHT22;12457;50.832;4.346;2023-01-08T09:09:02;8.20;99.90
24338;DHT22;12457;50.832;4.346;2023-01-08T09:11:27;8.30;99.90
24338;DHT22;12457;50.832;4.346;2023-01-08T09:13:53;8.40;99.90
24338;DHT22;12457;50.832;4.346;2023-01-08T09:16:19;8.40;99.90
24338;DHT22;12457;50.832;4.346;2023-01-08T09:18:45;8.40;99.90
24338;DHT22;12457;50.832;4.346;2023-01-08T09:21:11;8.40;99.90
24338;DHT22;12457;50.832;4.346;2023-01-08T09:23:37;8.40;99.90
24338;DHT22;12457;50.832;4.346;2023-01-08T09:26:04;8.30;99.90
24338;DHT22;12457;50.832;4.346;2023-01-08T09:28:30;8.30;99.90
24338;DHT22;12457;50.832;4.346;2023-01-08T09:31:00;8.30;99.90
24338;DHT22;12457;50.832;4.346;2023-01-08T09:33:26;8.30;99.90
24338;DHT22;12457;50.832;4.346;2023-01-08T09:35:51;8.30;99.90
24338;DHT22;12457;50.832;4.346;2023-01-08T09:38:17;8.40;99.90
24338;DHT22;12457;50.832;4.346;2023-01-08T09:41:06;8.40;99.90
24338;DHT22;12457;50.832;4.346;2023-01-08T09:43:36;8.40;99.90
24338;DHT22;12457;50.832;4.346;2023-01-08T09:46:05;8.50;99.90
24338;DHT22;12457;50.832;4.346;2023-01-08T09:48:36;8.60;99.90
24338;DHT22;12457;50.832;4.346;2023-01-08T09:51:03;8.70;99.90
24338;DHT22;12457;50.832;4.346;2023-01-08T09:53:29;8.70;99.90
24338;DHT22;12457;50.832;4.346;2023-01-08T09:56:02;8.70;99.90
24338;DHT22;12457;50.832;4.346;2023-01-08T10:01:01;8.80;99.90
24338;DHT22;12457;50.832;4.346;2023-01-08T10:03:40;8.70;99.90
24338;DHT22;12457;50.832;4.346;2023-01-08T10:06:10;8.80;99.90
24338;DHT22;12457;50.832;4.346;2023-01-08T10:08:36;8.80;99.90
24338;DHT22;12457;50.832;4.346;2023-01-08T10:11:03;8.80;99.90
24338;DHT22;12457;50.832;4.346;2023-01-08T10:13:31;8.90;99.90
24338;DHT22;12457;50.832;4.346;2023-01-08T10:15:57;9.00;99.90
24338;DHT22;12457;50.832;4.346;2023-01-08T10:18:24;9.00;99.90
24338;DHT22;12457;50.832;4.346;2023-01-08T10:20:50;9.00;99.90
24338;DHT22;12457;50.832;4.346;2023-01-08T10:23:18;9.10;99.90
24338;DHT22;12457;50.832;4.346;2023-01-08T10:25:49;9.10;99.90
24338;DHT22;12457;50.832;4.346;2023-01-08T10:28:23;9.10;99.90
24338;DHT22;12457;50.832;4.346;2023-01-08T10:30:50;9.20;99.90
24338;DHT22;12457;50.832;4.346;2023-01-08T10:33:28;9.20;99.90
24338;DHT22;12457;50.832;4.346;2023-01-08T10:35:59;9.20;99.90
24338;DHT22;12457;50.832;4.346;2023-01-08T10:38:33;9.30;99.90
24338;DHT22;12457;50.832;4.346;2023-01-08T10:41:03;9.30;99.90
24338;DHT22;12457;50.832;4.346;2023-01-08T10:48:49;9.50;99.90
24338;DHT22;12457;50.832;4.346;2023-01-08T10:51:18;9.40;99.90
24338;DHT22;12457;50.832;4.346;2023-01-08T10:53:45;9.50;99.90
24338;DHT22;12457;50.832;4.346;2023-01-08T10:56:22;9.50;99.90
24338;DHT22;12457;50.832;4.346;2023-01-08T10:58:49;9.50;99.90
24338;DHT22;12457;50.832;4.346;2023-01-08T11:01:44;9.60;99.90
24338;DHT22;12457;50.832;4.346;2023-01-08T11:04:20;9.60;99.90
24338;DHT22;12457;50.832;4.346;2023-01-08T11:06:47;9.70;99.90
24338;DHT22;12457;50.832;4.346;2023-01-08T11:09:22;9.90;99.90
24338;DHT22;12457;50.832;4.346;2023-01-08T11:11:49;10.00;99.90
24338;DHT22;12457;50.832;4.346;2023-01-08T11:14:34;10.00;99.90
24338;DHT22;12457;50.832;4.346;2023-01-08T11:17:01;10.10;99.90
24338;DHT22;12457;50.832;4.346;2023-01-08T11:19:32;10.20;99.90
24338;DHT22;12457;50.832;4.346;2023-01-08T11:22:02;10.10;99.90
24338;DHT22;12457;50.832;4.346;2023-01-08T11:24:37;10.20;99.90
24338;DHT22;12457;50.832;4.346;2023-01-08T11:30:00;10.30;99.90
24338;DHT22;12457;50.832;4.346;2023-01-08T11:33:08;10.50;99.90
24338;DHT22;12457;50.832;4.346;2023-01-08T11:35:43;10.60;99.90
24338;DHT22;12457;50.832;4.346;2023-01-08T11:38:11;10.60;99.90
24338;DHT22;12457;50.832;4.346;2023-01-08T11:51:57;10.80;99.90
24338;DHT22;12457;50.832;4.346;2023-01-08T12:02:51;10.90;98.90
24338;DHT22;12457;50.832;4.346;2023-01-08T12:05:33;11.00;98.30
24338;DHT22;12457;50.832;4.346;2023-01-08T12:08:06;10.90;98.60
24338;DHT22;12457;50.832;4.346;2023-01-08T12:19:09;10.90;97.50
24338;DHT22;12457;50.832;4.346;2023-01-08T12:34:36;10.90;98.20
24338;DHT22;12457;50.832;4.346;2023-01-08T12:37:24;10.90;98.10
24338;DHT22;12457;50.832;4.346;2023-01-08T12:39:57;11.00;96.80
24338;DHT22;12457;50.832;4.346;2023-01-08T12:42:29;11.00;96.20
24338;DHT22;12457;50.832;4.346;2023-01-08T12:44:59;10.90;95.50
24338;DHT22;12457;50.832;4.346;2023-01-08T12:47:29;10.90;97.30
24338;DHT22;12457;50.832;4.346;2023-01-08T12:50:31;10.90;96.40
24338;DHT22;12457;50.832;4.346;2023-01-08T12:53:17;11.00;96.60
24338;DHT22;12457;50.832;4.346;2023-01-08T12:55:54;11.10;96.30
24338;DHT22;12457;50.832;4.346;2023-01-08T12:58:58;11.10;96.80
24338;DHT22;12457;50.832;4.346;2023-01-08T13:03:59;11.20;94.90
24338;DHT22;12457;50.832;4.346;2023-01-08T13:06:26;11.20;94.30
24338;DHT22;12457;50.832;4.346;2023-01-08T13:08:55;11.10;94.90
24338;DHT22;12457;50.832;4.346;2023-01-08T13:11:33;11.20;95.50
24338;DHT22;12457;50.832;4.346;2023-01-08T13:14:09;11.20;95.30
24338;DHT22;12457;50.832;4.346;2023-01-08T13:16:39;11.10;96.20
24338;DHT22;12457;50.832;4.346;2023-01-08T13:19:28;11.10;96.90
24338;DHT22;12457;50.832;4.346;2023-01-08T13:21:57;11.10;96.90
24338;DHT22;12457;50.832;4.346;2023-01-08T13:24:37;11.10;95.90
24338;DHT22;12457;50.832;4.346;2023-01-08T13:29:45;11.00;95.10
24338;DHT22;12457;50.832;4.346;2023-01-08T13:35:29;10.90;97.30
24338;DHT22;12457;50.832;4.346;2023-01-08T13:46:15;10.90;96.90
24338;DHT22;12457;50.832;4.346;2023-01-08T13:54:30;11.00;96.40
24338;DHT22;12457;50.832;4.346;2023-01-08T13:57:03;10.90;96.90
24338;DHT22;12457;50.832;4.346;2023-01-08T13:59:55;10.80;97.00
24338;DHT22;12457;50.832;4.346;2023-01-08T14:02:31;10.80;97.20
24338;DHT22;12457;50.832;4.346;2023-01-08T14:04:59;10.70;98.00
24338;DHT22;12457;50.832;4.346;2023-01-08T14:07:25;10.60;98.00
24338;DHT22;12457;50.832;4.346;2023-01-08T14:09:52;10.60;98.10
24338;DHT22;12457;50.832;4.346;2023-01-08T14:12:20;10.60;98.10
24338;DHT22;12457;50.832;4.346;2023-01-08T14:14:51;10.70;97.40
24338;DHT22;12457;50.832;4.346;2023-01-08T14:17:20;10.80;95.80
24338;DHT22;12457;50.832;4.346;2023-01-08T14:19:46;10.90;96.30
24338;DHT22;12457;50.832;4.346;2023-01-08T14:22:28;10.90;96.20
24338;DHT22;12457;50.832;4.346;2023-01-08T14:24:59;11.00;96.20
24338;DHT22;12457;50.832;4.346;2023-01-08T14:27:27;10.90;95.70
24338;DHT22;12457;50.832;4.346;2023-01-08T14:29:53;10.90;95.20
24338;DHT22;12457;50.832;4.346;2023-01-08T14:32:23;10.90;95.00
24338;DHT22;12457;50.832;4.346;2023-01-08T14:34:50;10.80;94.80
24338;DHT22;12457;50.832;4.346;2023-01-08T14:37:17;10.70;95.00
24338;DHT22;12457;50.832;4.346;2023-01-08T14:39:44;10.70;95.50
24338;DHT22;12457;50.832;4.346;2023-01-08T14:42:19;10.80;95.10
24338;DHT22;12457;50.832;4.346;2023-01-08T14:45:07;10.80;95.10
24338;DHT22;12457;50.832;4.346;2023-01-08T14:47:42;10.90;93.60
24338;DHT22;12457;50.832;4.346;2023-01-08T14:50:38;10.90;94.80
24338;DHT22;12457;50.832;4.346;2023-01-08T14:55:45;10.70;96.10
24338;DHT22;12457;50.832;4.346;2023-01-08T14:58:15;10.70;95.90
24338;DHT22;12457;50.832;4.346;2023-01-08T15:00:42;10.60;95.20
24338;DHT22;12457;50.832;4.346;2023-01-08T15:03:37;10.50;95.80
24338;DHT22;12457;50.832;4.346;2023-01-08T15:06:04;10.50;95.40
24338;DHT22;12457;50.832;4.346;2023-01-08T15:08:34;10.40;95.40
24338;DHT22;12457;50.832;4.346;2023-01-08T15:13:46;10.50;93.90
24338;DHT22;12457;50.832;4.346;2023-01-08T15:18:59;10.60;94.30
24338;DHT22;12457;50.832;4.346;2023-01-08T15:21:28;10.50;94.70
24338;DHT22;12457;50.832;4.346;2023-01-08T15:23:56;10.40;95.80
24338;DHT22;12457;50.832;4.346;2023-01-08T15:26:23;10.40;94.70
24338;DHT22;12457;50.832;4.346;2023-01-08T15:29:00;10.40;95.60
24338;DHT22;12457;50.832;4.346;2023-01-08T15:34:08;10.20;97.40
24338;DHT22;12457;50.832;4.346;2023-01-08T15:36:34;10.30;96.50
24338;DHT22;12457;50.832;4.346;2023-01-08T15:39:00;10.30;96.90
24338;DHT22;12457;50.832;4.346;2023-01-08T15:41:33;10.30;97.20
24338;DHT22;12457;50.832;4.346;2023-01-08T15:44:18;10.30;96.90
24338;DHT22;12457;50.832;4.346;2023-01-08T15:46:44;10.20;97.00
24338;DHT22;12457;50.832;4.346;2023-01-08T15:49:10;10.30;97.10
24338;DHT22;12457;50.832;4.346;2023-01-08T15:51:47;10.20;97.40
24338;DHT22;12457;50.832;4.346;2023-01-08T15:54:14;10.20;97.60
24338;DHT22;12457;50.832;4.346;2023-01-08T15:56:40;10.20;97.80
24338;DHT22;12457;50.832;4.346;2023-01-08T15:59:06;10.20;97.60
24338;DHT22;12457;50.832;4.346;2023-01-08T16:01:32;10.20;97.10
24338;DHT22;12457;50.832;4.346;2023-01-08T16:03:58;10.20;97.10
24338;DHT22;12457;50.832;4.346;2023-01-08T16:06:25;10.20;96.70
24338;DHT22;12457;50.832;4.346;2023-01-08T16:08:50;10.20;96.50
24338;DHT22;12457;50.832;4.346;2023-01-08T16:11:17;10.20;96.70
24338;DHT22;12457;50.832;4.346;2023-01-08T16:13:43;10.20;97.20
24338;DHT22;12457;50.832;4.346;2023-01-08T16:16:09;10.10;97.80
24338;DHT22;12457;50.832;4.346;2023-01-08T16:18:39;10.10;97.70
24338;DHT22;12457;50.832;4.346;2023-01-08T16:21:06;10.10;97.80
24338;DHT22;12457;50.832;4.346;2023-01-08T16:23:34;10.10;97.70
24338;DHT22;12457;50.832;4.346;2023-01-08T16:26:11;10.10;97.40
24338;DHT22;12457;50.832;4.346;2023-01-08T16:28:37;10.10;97.20
24338;DHT22;12457;50.832;4.346;2023-01-08T16:31:03;10.00;97.30
24338;DHT22;12457;50.832;4.346;2023-01-08T16:33:30;9.90;97.80
24338;DHT22;12457;50.832;4.346;2023-01-08T16:36:04;9.80;98.80
24338;DHT22;12457;50.832;4.346;2023-01-08T16:38:30;9.60;99.90
24338;DHT22;12457;50.832;4.346;2023-01-08T16:40:56;9.50;99.90
24338;DHT22;12457;50.832;4.346;2023-01-08T16:43:25;9.50;99.90
24338;DHT22;12457;50.832;4.346;2023-01-08T16:45:52;9.40;99.90
24338;DHT22;12457;50.832;4.346;2023-01-08T16:48:19;9.40;99.90
24338;DHT22;12457;50.832;4.346;2023-01-08T16:50:45;9.40;99.90
24338;DHT22;12457;50.832;4.346;2023-01-08T16:53:11;9.40;99.90
24338;DHT22;12457;50.832;4.346;2023-01-08T16:55:38;9.40;99.90
24338;DHT22;12457;50.832;4.346;2023-01-08T16:58:05;9.40;99.90
24338;DHT22;12457;50.832;4.346;2023-01-08T17:00:36;9.30;99.90
24338;DHT22;12457;50.832;4.346;2023-01-08T17:03:04;9.20;99.90
24338;DHT22;12457;50.832;4.346;2023-01-08T17:05:30;9.20;99.90
24338;DHT22;12457;50.832;4.346;2023-01-08T17:07:56;9.20;99.90
24338;DHT22;12457;50.832;4.346;2023-01-08T17:10:23;9.20;99.90
24338;DHT22;12457;50.832;4.346;2023-01-08T17:12:49;9.40;99.90
24338;DHT22;12457;50.832;4.346;2023-01-08T17:15:15;9.40;99.90
24338;DHT22;12457;50.832;4.346;2023-01-08T17:17:41;9.30;99.90
24338;DHT22;12457;50.832;4.346;2023-01-08T17:20:10;9.40;99.90
24338;DHT22;12457;50.832;4.346;2023-01-08T17:22:36;9.40;99.90
24338;DHT22;12457;50.832;4.346;2023-01-08T17:25:02;9.50;99.90
24338;DHT22;12457;50.832;4.346;2023-01-08T17:27:28;9.50;99.90
24338;DHT22;12457;50.832;4.346;2023-01-08T17:29:53;9.50;99.90